sensor_id;sensor_type;location;lat;lon;timestamp;P1;durP1;ratioP1;P2;durP2;ratioP2
50815;SDS011;39717;47.324;8.788;2022-09-29T00:00:06;1.50;;;1.07;;
50815;SDS011;39717;47.324;8.788;2022-09-29T00:02:33;1.20;;;1.10;;
50815;SDS011;39717;47.324;8.788;2022-09-29T00:04:58;1.50;;;1.23;;
50815;SDS011;39717;47.324;8.788;2022-09-29T00:07:24;2.40;;;1.30;;
50815;SDS011;39717;47.324;8.788;2022-09-29T00:09:50;1.90;;;1.57;;
50815;SDS011;39717;47.324;8.788;2022-09-29T00:12:16;1.60;;;1.50;;
50815;SDS011;39717;47.324;8.788;2022-09-29T00:14:41;1.93;;;1.33;;
50815;SDS011;39717;47.324;8.788;2022-09-29T00:17:07;1.47;;;1.13;;
50815;SDS011;39717;47.324;8.788;2022-09-29T00:19:33;1.93;;;1.43;;
50815;SDS011;39717;47.324;8.788;2022-09-29T00:21:59;2.23;;;1.30;;
50815;SDS011;39717;47.324;8.788;2022-09-29T00:24:26;3.57;;;1.10;;
50815;SDS011;39717;47.324;8.788;2022-09-29T00:26:52;1.70;;;1.23;;
50815;SDS011;39717;47.324;8.788;2022-09-29T00:29:18;1.80;;;1.20;;
50815;SDS011;39717;47.324;8.788;2022-09-29T00:31:43;2.30;;;1.40;;
50815;SDS011;39717;47.324;8.788;2022-09-29T00:34:10;1.30;;;1.20;;
50815;SDS011;39717;47.324;8.788;2022-09-29T00:36:36;2.03;;;1.47;;
50815;SDS011;39717;47.324;8.788;2022-09-29T00:39:02;2.33;;;1.40;;
50815;SDS011;39717;47.324;8.788;2022-09-29T00:41:30;2.20;;;1.37;;
50815;SDS011;39717;47.324;8.788;2022-09-29T00:44:02;1.23;;;1.13;;
50815;SDS011;39717;47.324;8.788;2022-09-29T00:49:38;1.27;;;1.17;;
50815;SDS011;39717;47.324;8.788;2022-09-29T00:52:14;1.70;;;1.40;;
50815;SDS011;39717;47.324;8.788;2022-09-29T00:54:48;2.83;;;1.63;;
50815;SDS011;39717;47.324;8.788;2022-09-29T00:57:22;2.10;;;1.20;;
50815;SDS011;39717;47.324;8.788;2022-09-29T01:00:01;1.80;;;1.23;;
50815;SDS011;39717;47.324;8.788;2022-09-29T01:02:43;1.30;;;1.10;;
50815;SDS011;39717;47.324;8.788;2022-09-29T01:05:17;1.37;;;1.10;;
50815;SDS011;39717;47.324;8.788;2022-09-29T01:07:47;1.40;;;1.20;;
50815;SDS011;39717;47.324;8.788;2022-09-29T01:10:14;1.30;;;1.20;;
50815;SDS011;39717;47.324;8.788;2022-09-29T01:12:45;1.30;;;1.20;;
50815;SDS011;39717;47.324;8.788;2022-09-29T01:15:13;1.30;;;1.20;;
50815;SDS011;39717;47.324;8.788;2022-09-29T01:17:41;1.93;;;1.30;;
50815;SDS011;39717;47.324;8.788;2022-09-29T01:20:42;1.40;;;1.30;;
50815;SDS011;39717;47.324;8.788;2022-09-29T01:26:03;1.47;;;1.30;;
50815;SDS011;39717;47.324;8.788;2022-09-29T01:31:51;1.27;;;1.17;;
50815;SDS011;39717;47.324;8.788;2022-09-29T01:34:43;1.90;;;1.20;;
50815;SDS011;39717;47.324;8.788;2022-09-29T01:40:13;3.03;;;1.00;;
50815;SDS011;39717;47.324;8.788;2022-09-29T01:42:54;2.20;;;1.30;;
50815;SDS011;39717;47.324;8.788;2022-09-29T01:45:33;1.30;;;1.20;;
50815;SDS011;39717;47.324;8.788;2022-09-29T01:48:38;2.83;;;1.40;;
50815;SDS011;39717;47.324;8.788;2022-09-29T01:51:00;1.43;;;1.20;;
50815;SDS011;39717;47.324;8.788;2022-09-29T01:53:40;1.30;;;1.20;;
50815;SDS011;39717;47.324;8.788;2022-09-29T01:56:13;2.90;;;1.20;;
50815;SDS011;39717;47.324;8.788;2022-09-29T01:58:47;1.80;;;1.20;;
50815;SDS011;39717;47.324;8.788;2022-09-29T02:01:20;2.40;;;1.40;;
50815;SDS011;39717;47.324;8.788;2022-09-29T02:03:51;1.90;;;1.60;;
50815;SDS011;39717;47.324;8.788;2022-09-29T02:06:26;1.70;;;1.60;;
50815;SDS011;39717;47.324;8.788;2022-09-29T02:09:01;1.80;;;1.57;;
50815;SDS011;39717;47.324;8.788;2022-09-29T02:11:32;2.73;;;1.93;;
50815;SDS011;39717;47.324;8.788;2022-09-29T02:14:09;4.33;;;3.50;;
50815;SDS011;39717;47.324;8.788;2022-09-29T02:16:40;6.37;;;3.60;;
50815;SDS011;39717;47.324;8.788;2022-09-29T02:19:16;6.07;;;3.73;;
50815;SDS011;39717;47.324;8.788;2022-09-29T02:21:45;7.13;;;4.53;;
50815;SDS011;39717;47.324;8.788;2022-09-29T02:24:11;5.60;;;2.70;;
50815;SDS011;39717;47.324;8.788;2022-09-29T02:26:37;2.37;;;2.17;;
50815;SDS011;39717;47.324;8.788;2022-09-29T02:29:05;3.37;;;2.33;;
50815;SDS011;39717;47.324;8.788;2022-09-29T02:31:33;1.87;;;1.73;;
50815;SDS011;39717;47.324;8.788;2022-09-29T02:34:01;2.33;;;1.87;;
50815;SDS011;39717;47.324;8.788;2022-09-29T02:44:23;1.70;;;1.60;;
50815;SDS011;39717;47.324;8.788;2022-09-29T02:47:13;3.83;;;1.90;;
50815;SDS011;39717;47.324;8.788;2022-09-29T03:01:04;4.60;;;3.53;;
50815;SDS011;39717;47.324;8.788;2022-09-29T03:03:31;5.07;;;3.50;;
50815;SDS011;39717;47.324;8.788;2022-09-29T03:05:57;3.13;;;2.70;;
50815;SDS011;39717;47.324;8.788;2022-09-29T03:08:23;4.83;;;3.83;;
50815;SDS011;39717;47.324;8.788;2022-09-29T03:10:49;3.63;;;3.17;;
50815;SDS011;39717;47.324;8.788;2022-09-29T03:13:15;5.23;;;3.30;;
50815;SDS011;39717;47.324;8.788;2022-09-29T03:15:41;3.73;;;3.33;;
50815;SDS011;39717;47.324;8.788;2022-09-29T03:18:07;5.00;;;3.50;;
50815;SDS011;39717;47.324;8.788;2022-09-29T03:20:33;5.30;;;3.47;;
50815;SDS011;39717;47.324;8.788;2022-09-29T03:22:59;5.50;;;3.30;;
50815;SDS011;39717;47.324;8.788;2022-09-29T03:25:25;4.70;;;3.80;;
50815;SDS011;39717;47.324;8.788;2022-09-29T03:27:51;3.87;;;3.13;;
50815;SDS011;39717;47.324;8.788;2022-09-29T03:30:17;5.13;;;3.73;;
50815;SDS011;39717;47.324;8.788;2022-09-29T03:32:43;5.80;;;3.90;;
50815;SDS011;39717;47.324;8.788;2022-09-29T03:35:10;5.13;;;3.87;;
50815;SDS011;39717;47.324;8.788;2022-09-29T03:37:36;4.63;;;3.17;;
50815;SDS011;39717;47.324;8.788;2022-09-29T03:40:03;3.20;;;2.30;;
50815;SDS011;39717;47.324;8.788;2022-09-29T03:42:30;4.53;;;3.27;;
50815;SDS011;39717;47.324;8.788;2022-09-29T03:44:56;3.13;;;2.00;;
50815;SDS011;39717;47.324;8.788;2022-09-29T03:47:22;3.17;;;1.90;;
50815;SDS011;39717;47.324;8.788;2022-09-29T03:49:48;3.27;;;2.17;;
50815;SDS011;39717;47.324;8.788;2022-09-29T03:52:14;4.17;;;2.17;;
50815;SDS011;39717;47.324;8.788;2022-09-29T03:54:41;2.47;;;1.90;;
50815;SDS011;39717;47.324;8.788;2022-09-29T03:57:06;3.80;;;1.80;;
50815;SDS011;39717;47.324;8.788;2022-09-29T03:59:32;5.67;;;3.30;;
50815;SDS011;39717;47.324;8.788;2022-09-29T04:01:58;5.17;;;3.40;;
50815;SDS011;39717;47.324;8.788;2022-09-29T04:04:24;6.20;;;3.70;;
50815;SDS011;39717;47.324;8.788;2022-09-29T04:06:50;5.93;;;3.73;;
50815;SDS011;39717;47.324;8.788;2022-09-29T04:09:16;5.80;;;3.47;;
50815;SDS011;39717;47.324;8.788;2022-09-29T04:11:42;6.60;;;3.90;;
50815;SDS011;39717;47.324;8.788;2022-09-29T04:14:07;6.17;;;4.07;;
50815;SDS011;39717;47.324;8.788;2022-09-29T04:16:33;4.63;;;3.70;;
50815;SDS011;39717;47.324;8.788;2022-09-29T04:18:59;5.03;;;3.43;;
50815;SDS011;39717;47.324;8.788;2022-09-29T04:21:25;5.53;;;3.30;;
50815;SDS011;39717;47.324;8.788;2022-09-29T04:23:50;8.23;;;3.90;;
50815;SDS011;39717;47.324;8.788;2022-09-29T04:26:16;5.93;;;3.93;;
50815;SDS011;39717;47.324;8.788;2022-09-29T04:28:45;5.50;;;3.77;;
50815;SDS011;39717;47.324;8.788;2022-09-29T04:31:11;4.77;;;3.63;;
50815;SDS011;39717;47.324;8.788;2022-09-29T04:33:37;5.27;;;3.20;;
50815;SDS011;39717;47.324;8.788;2022-09-29T04:36:03;3.33;;;2.83;;
50815;SDS011;39717;47.324;8.788;2022-09-29T04:38:30;3.53;;;2.80;;
50815;SDS011;39717;47.324;8.788;2022-09-29T04:40:56;2.80;;;2.37;;
50815;SDS011;39717;47.324;8.788;2022-09-29T04:43:22;2.93;;;2.43;;
50815;SDS011;39717;47.324;8.788;2022-09-29T04:45:48;2.73;;;2.27;;
50815;SDS011;39717;47.324;8.788;2022-09-29T04:48:14;4.07;;;3.23;;
50815;SDS011;39717;47.324;8.788;2022-09-29T04:50:41;5.27;;;4.20;;
50815;SDS011;39717;47.324;8.788;2022-09-29T04:53:08;8.93;;;5.33;;
50815;SDS011;39717;47.324;8.788;2022-09-29T04:55:36;8.50;;;5.00;;
50815;SDS011;39717;47.324;8.788;2022-09-29T04:58:02;8.00;;;5.47;;
50815;SDS011;39717;47.324;8.788;2022-09-29T05:00:29;8.27;;;6.47;;
50815;SDS011;39717;47.324;8.788;2022-09-29T05:02:56;9.97;;;6.60;;
50815;SDS011;39717;47.324;8.788;2022-09-29T05:05:22;10.90;;;6.50;;
50815;SDS011;39717;47.324;8.788;2022-09-29T05:07:48;9.63;;;6.03;;
50815;SDS011;39717;47.324;8.788;2022-09-29T05:10:14;9.40;;;4.97;;
50815;SDS011;39717;47.324;8.788;2022-09-29T05:12:40;10.00;;;7.20;;
50815;SDS011;39717;47.324;8.788;2022-09-29T05:15:11;10.17;;;7.67;;
50815;SDS011;39717;47.324;8.788;2022-09-29T05:17:36;5.53;;;4.20;;
50815;SDS011;39717;47.324;8.788;2022-09-29T05:20:02;5.60;;;4.53;;
50815;SDS011;39717;47.324;8.788;2022-09-29T05:22:29;5.77;;;4.07;;
50815;SDS011;39717;47.324;8.788;2022-09-29T05:24:55;5.50;;;4.13;;
50815;SDS011;39717;47.324;8.788;2022-09-29T05:27:21;5.27;;;3.90;;
50815;SDS011;39717;47.324;8.788;2022-09-29T05:29:47;4.97;;;4.00;;
50815;SDS011;39717;47.324;8.788;2022-09-29T05:32:16;6.30;;;4.00;;
50815;SDS011;39717;47.324;8.788;2022-09-29T05:34:42;6.83;;;3.60;;
50815;SDS011;39717;47.324;8.788;2022-09-29T05:37:08;4.57;;;3.93;;
50815;SDS011;39717;47.324;8.788;2022-09-29T05:39:34;4.90;;;3.70;;
50815;SDS011;39717;47.324;8.788;2022-09-29T05:42:02;6.63;;;3.70;;
50815;SDS011;39717;47.324;8.788;2022-09-29T05:44:30;5.27;;;4.50;;
50815;SDS011;39717;47.324;8.788;2022-09-29T05:46:58;5.77;;;4.47;;
50815;SDS011;39717;47.324;8.788;2022-09-29T05:49:24;5.33;;;4.27;;
50815;SDS011;39717;47.324;8.788;2022-09-29T05:51:49;7.77;;;4.73;;
50815;SDS011;39717;47.324;8.788;2022-09-29T05:54:15;7.00;;;3.90;;
50815;SDS011;39717;47.324;8.788;2022-09-29T05:56:41;9.77;;;5.33;;
50815;SDS011;39717;47.324;8.788;2022-09-29T05:59:08;3.93;;;3.50;;
50815;SDS011;39717;47.324;8.788;2022-09-29T06:01:34;5.93;;;3.93;;
50815;SDS011;39717;47.324;8.788;2022-09-29T06:04:00;4.50;;;3.10;;
50815;SDS011;39717;47.324;8.788;2022-09-29T06:06:27;6.40;;;3.40;;
50815;SDS011;39717;47.324;8.788;2022-09-29T06:08:54;4.77;;;3.13;;
50815;SDS011;39717;47.324;8.788;2022-09-29T06:11:22;3.97;;;3.37;;
50815;SDS011;39717;47.324;8.788;2022-09-29T06:13:51;4.40;;;3.70;;
50815;SDS011;39717;47.324;8.788;2022-09-29T06:16:19;4.53;;;3.70;;
50815;SDS011;39717;47.324;8.788;2022-09-29T06:18:47;5.53;;;3.80;;
50815;SDS011;39717;47.324;8.788;2022-09-29T06:21:17;6.10;;;3.53;;
50815;SDS011;39717;47.324;8.788;2022-09-29T06:23:45;4.80;;;3.30;;
50815;SDS011;39717;47.324;8.788;2022-09-29T06:26:13;5.50;;;3.30;;
50815;SDS011;39717;47.324;8.788;2022-09-29T06:28:40;4.33;;;3.27;;
50815;SDS011;39717;47.324;8.788;2022-09-29T06:31:07;2.90;;;2.60;;
50815;SDS011;39717;47.324;8.788;2022-09-29T06:33:38;5.93;;;3.07;;
50815;SDS011;39717;47.324;8.788;2022-09-29T06:36:22;4.93;;;3.20;;
50815;SDS011;39717;47.324;8.788;2022-09-29T06:39:10;3.47;;;2.80;;
50815;SDS011;39717;47.324;8.788;2022-09-29T06:41:37;2.70;;;2.50;;
50815;SDS011;39717;47.324;8.788;2022-09-29T06:44:03;3.50;;;2.70;;
50815;SDS011;39717;47.324;8.788;2022-09-29T06:46:29;5.83;;;3.50;;
50815;SDS011;39717;47.324;8.788;2022-09-29T06:48:56;48.83;;;20.13;;
50815;SDS011;39717;47.324;8.788;2022-09-29T06:51:22;53.87;;;24.97;;
50815;SDS011;39717;47.324;8.788;2022-09-29T06:53:49;41.10;;;18.37;;
50815;SDS011;39717;47.324;8.788;2022-09-29T06:56:16;5.60;;;4.20;;
50815;SDS011;39717;47.324;8.788;2022-09-29T06:58:43;21.57;;;11.53;;
50815;SDS011;39717;47.324;8.788;2022-09-29T07:01:10;9.60;;;6.33;;
50815;SDS011;39717;47.324;8.788;2022-09-29T07:03:37;7.07;;;4.23;;
50815;SDS011;39717;47.324;8.788;2022-09-29T07:06:04;5.20;;;3.37;;
50815;SDS011;39717;47.324;8.788;2022-09-29T07:08:31;6.07;;;3.90;;
50815;SDS011;39717;47.324;8.788;2022-09-29T07:10:59;5.30;;;4.40;;
50815;SDS011;39717;47.324;8.788;2022-09-29T07:13:27;4.63;;;3.70;;
50815;SDS011;39717;47.324;8.788;2022-09-29T07:15:53;3.80;;;3.40;;
50815;SDS011;39717;47.324;8.788;2022-09-29T07:18:19;4.90;;;3.80;;
50815;SDS011;39717;47.324;8.788;2022-09-29T07:20:45;6.20;;;4.43;;
50815;SDS011;39717;47.324;8.788;2022-09-29T07:23:11;6.10;;;3.80;;
50815;SDS011;39717;47.324;8.788;2022-09-29T07:25:38;3.47;;;3.17;;
50815;SDS011;39717;47.324;8.788;2022-09-29T07:28:03;3.70;;;3.20;;
50815;SDS011;39717;47.324;8.788;2022-09-29T07:30:29;5.93;;;3.90;;
50815;SDS011;39717;47.324;8.788;2022-09-29T07:32:55;4.23;;;3.20;;
50815;SDS011;39717;47.324;8.788;2022-09-29T07:35:23;5.23;;;3.50;;
50815;SDS011;39717;47.324;8.788;2022-09-29T07:37:52;5.87;;;5.23;;
50815;SDS011;39717;47.324;8.788;2022-09-29T07:40:22;9.00;;;7.43;;
50815;SDS011;39717;47.324;8.788;2022-09-29T07:42:49;9.23;;;7.50;;
50815;SDS011;39717;47.324;8.788;2022-09-29T07:45:18;5.67;;;5.03;;
50815;SDS011;39717;47.324;8.788;2022-09-29T07:47:44;7.33;;;5.20;;
50815;SDS011;39717;47.324;8.788;2022-09-29T07:50:11;4.00;;;3.57;;
50815;SDS011;39717;47.324;8.788;2022-09-29T07:52:37;5.60;;;3.90;;
50815;SDS011;39717;47.324;8.788;2022-09-29T07:55:03;11.43;;;5.53;;
50815;SDS011;39717;47.324;8.788;2022-09-29T07:57:29;6.03;;;4.63;;
50815;SDS011;39717;47.324;8.788;2022-09-29T07:59:55;9.33;;;5.63;;
50815;SDS011;39717;47.324;8.788;2022-09-29T08:02:23;5.50;;;4.90;;
50815;SDS011;39717;47.324;8.788;2022-09-29T08:04:49;3.53;;;3.03;;
50815;SDS011;39717;47.324;8.788;2022-09-29T08:07:15;3.03;;;2.30;;
50815;SDS011;39717;47.324;8.788;2022-09-29T08:09:41;3.20;;;2.90;;
50815;SDS011;39717;47.324;8.788;2022-09-29T08:12:07;6.90;;;4.37;;
50815;SDS011;39717;47.324;8.788;2022-09-29T08:14:33;5.17;;;4.57;;
50815;SDS011;39717;47.324;8.788;2022-09-29T08:16:59;11.27;;;6.87;;
50815;SDS011;39717;47.324;8.788;2022-09-29T08:19:26;6.57;;;5.17;;
50815;SDS011;39717;47.324;8.788;2022-09-29T08:21:53;7.97;;;5.70;;
50815;SDS011;39717;47.324;8.788;2022-09-29T08:24:19;6.20;;;5.33;;
50815;SDS011;39717;47.324;8.788;2022-09-29T08:26:45;7.07;;;5.60;;
50815;SDS011;39717;47.324;8.788;2022-09-29T08:29:12;6.53;;;5.27;;
50815;SDS011;39717;47.324;8.788;2022-09-29T08:31:38;8.10;;;6.10;;
50815;SDS011;39717;47.324;8.788;2022-09-29T08:34:04;9.03;;;6.50;;
50815;SDS011;39717;47.324;8.788;2022-09-29T08:36:31;6.27;;;4.93;;
50815;SDS011;39717;47.324;8.788;2022-09-29T08:38:57;9.87;;;5.20;;
50815;SDS011;39717;47.324;8.788;2022-09-29T08:43:55;6.97;;;4.53;;
50815;SDS011;39717;47.324;8.788;2022-09-29T08:49:30;6.93;;;4.20;;
50815;SDS011;39717;47.324;8.788;2022-09-29T08:52:02;3.33;;;3.03;;
50815;SDS011;39717;47.324;8.788;2022-09-29T08:54:30;5.57;;;4.17;;
50815;SDS011;39717;47.324;8.788;2022-09-29T08:56:57;4.70;;;2.97;;
50815;SDS011;39717;47.324;8.788;2022-09-29T08:59:24;3.13;;;2.60;;
50815;SDS011;39717;47.324;8.788;2022-09-29T09:02:07;2.33;;;2.13;;
50815;SDS011;39717;47.324;8.788;2022-09-29T09:07:16;3.13;;;2.70;;
50815;SDS011;39717;47.324;8.788;2022-09-29T09:12:19;3.30;;;2.10;;
50815;SDS011;39717;47.324;8.788;2022-09-29T09:17:26;2.93;;;2.07;;
50815;SDS011;39717;47.324;8.788;2022-09-29T09:20:00;1.87;;;1.77;;
50815;SDS011;39717;47.324;8.788;2022-09-29T09:27:37;1.63;;;1.53;;
50815;SDS011;39717;47.324;8.788;2022-09-29T09:30:05;2.40;;;2.20;;
50815;SDS011;39717;47.324;8.788;2022-09-29T09:32:34;2.10;;;1.90;;
50815;SDS011;39717;47.324;8.788;2022-09-29T09:35:05;2.30;;;2.10;;
50815;SDS011;39717;47.324;8.788;2022-09-29T09:37:35;2.27;;;2.07;;
50815;SDS011;39717;47.324;8.788;2022-09-29T09:42:39;3.10;;;2.60;;
50815;SDS011;39717;47.324;8.788;2022-09-29T09:45:22;16.03;;;13.17;;
50815;SDS011;39717;47.324;8.788;2022-09-29T09:47:55;11.93;;;7.93;;
50815;SDS011;39717;47.324;8.788;2022-09-29T09:50:24;16.23;;;11.70;;
50815;SDS011;39717;47.324;8.788;2022-09-29T09:52:51;3.10;;;2.80;;
50815;SDS011;39717;47.324;8.788;2022-09-29T09:55:21;3.57;;;2.67;;
50815;SDS011;39717;47.324;8.788;2022-09-29T09:58:00;4.30;;;2.67;;
50815;SDS011;39717;47.324;8.788;2022-09-29T10:03:02;6.07;;;4.23;;
50815;SDS011;39717;47.324;8.788;2022-09-29T10:05:31;4.97;;;3.60;;
50815;SDS011;39717;47.324;8.788;2022-09-29T10:08:01;3.53;;;2.67;;
50815;SDS011;39717;47.324;8.788;2022-09-29T10:10:28;2.20;;;2.00;;
50815;SDS011;39717;47.324;8.788;2022-09-29T10:12:56;2.13;;;1.93;;
50815;SDS011;39717;47.324;8.788;2022-09-29T10:15:31;2.87;;;2.37;;
50815;SDS011;39717;47.324;8.788;2022-09-29T10:18:00;1.80;;;1.70;;
50815;SDS011;39717;47.324;8.788;2022-09-29T10:20:32;2.13;;;2.00;;
50815;SDS011;39717;47.324;8.788;2022-09-29T10:23:18;2.60;;;2.40;;
50815;SDS011;39717;47.324;8.788;2022-09-29T10:26:05;3.07;;;2.47;;
50815;SDS011;39717;47.324;8.788;2022-09-29T10:28:37;4.10;;;3.00;;
50815;SDS011;39717;47.324;8.788;2022-09-29T10:31:14;3.97;;;3.40;;
50815;SDS011;39717;47.324;8.788;2022-09-29T10:33:45;2.17;;;1.80;;
50815;SDS011;39717;47.324;8.788;2022-09-29T10:36:12;2.80;;;2.33;;
50815;SDS011;39717;47.324;8.788;2022-09-29T10:38:38;2.83;;;2.63;;
50815;SDS011;39717;47.324;8.788;2022-09-29T10:41:05;3.77;;;2.47;;
50815;SDS011;39717;47.324;8.788;2022-09-29T10:46:02;2.30;;;2.10;;
50815;SDS011;39717;47.324;8.788;2022-09-29T10:48:28;5.30;;;3.30;;
50815;SDS011;39717;47.324;8.788;2022-09-29T10:50:59;3.67;;;2.80;;
50815;SDS011;39717;47.324;8.788;2022-09-29T10:53:39;4.70;;;3.10;;
50815;SDS011;39717;47.324;8.788;2022-09-29T10:56:21;3.90;;;3.53;;
50815;SDS011;39717;47.324;8.788;2022-09-29T10:58:53;5.50;;;3.90;;
50815;SDS011;39717;47.324;8.788;2022-09-29T11:01:20;4.57;;;3.70;;
50815;SDS011;39717;47.324;8.788;2022-09-29T11:06:13;3.33;;;2.60;;
50815;SDS011;39717;47.324;8.788;2022-09-29T11:08:55;4.10;;;3.20;;
50815;SDS011;39717;47.324;8.788;2022-09-29T11:13:57;3.27;;;2.77;;
50815;SDS011;39717;47.324;8.788;2022-09-29T11:16:25;1.87;;;1.77;;
50815;SDS011;39717;47.324;8.788;2022-09-29T11:18:53;2.40;;;2.20;;
50815;SDS011;39717;47.324;8.788;2022-09-29T11:21:56;3.00;;;2.70;;
50815;SDS011;39717;47.324;8.788;2022-09-29T11:26:57;3.53;;;3.00;;
50815;SDS011;39717;47.324;8.788;2022-09-29T11:32:42;2.10;;;1.90;;
50815;SDS011;39717;47.324;8.788;2022-09-29T11:34:43;2.70;;;2.50;;
50815;SDS011;39717;47.324;8.788;2022-09-29T11:37:19;3.00;;;2.70;;
50815;SDS011;39717;47.324;8.788;2022-09-29T11:45:09;4.47;;;3.20;;
50815;SDS011;39717;47.324;8.788;2022-09-29T11:53:27;3.50;;;2.60;;
50815;SDS011;39717;47.324;8.788;2022-09-29T11:58:45;3.10;;;2.00;;
50815;SDS011;39717;47.324;8.788;2022-09-29T12:01:24;3.60;;;2.23;;
50815;SDS011;39717;47.324;8.788;2022-09-29T12:03:59;2.63;;;2.43;;
50815;SDS011;39717;47.324;8.788;2022-09-29T12:16:40;1.90;;;1.77;;
50815;SDS011;39717;47.324;8.788;2022-09-29T12:19:10;2.30;;;1.90;;
50815;SDS011;39717;47.324;8.788;2022-09-29T12:21:39;2.90;;;2.00;;
50815;SDS011;39717;47.324;8.788;2022-09-29T12:24:13;3.00;;;2.07;;
50815;SDS011;39717;47.324;8.788;2022-09-29T12:26:40;2.07;;;1.73;;
50815;SDS011;39717;47.324;8.788;2022-09-29T12:31:41;2.67;;;2.17;;
50815;SDS011;39717;47.324;8.788;2022-09-29T12:34:18;1.83;;;1.73;;
50815;SDS011;39717;47.324;8.788;2022-09-29T12:37:01;2.50;;;2.07;;
50815;SDS011;39717;47.324;8.788;2022-09-29T12:39:40;3.67;;;2.43;;
50815;SDS011;39717;47.324;8.788;2022-09-29T12:44:42;6.37;;;2.50;;
50815;SDS011;39717;47.324;8.788;2022-09-29T12:47:24;2.63;;;1.73;;
50815;SDS011;39717;47.324;8.788;2022-09-29T12:49:59;2.77;;;1.90;;
50815;SDS011;39717;47.324;8.788;2022-09-29T12:52:32;1.80;;;1.50;;
50815;SDS011;39717;47.324;8.788;2022-09-29T12:55:04;0.90;;;0.90;;
50815;SDS011;39717;47.324;8.788;2022-09-29T12:57:35;1.00;;;1.00;;
50815;SDS011;39717;47.324;8.788;2022-09-29T13:00:06;1.00;;;1.00;;
50815;SDS011;39717;47.324;8.788;2022-09-29T13:05:06;0.80;;;0.80;;
50815;SDS011;39717;47.324;8.788;2022-09-29T13:20:48;1.60;;;1.43;;
50815;SDS011;39717;47.324;8.788;2022-09-29T13:25:54;1.90;;;1.47;;
50815;SDS011;39717;47.324;8.788;2022-09-29T13:28:25;1.47;;;1.37;;
50815;SDS011;39717;47.324;8.788;2022-09-29T13:30:54;1.13;;;1.10;;
50815;SDS011;39717;47.324;8.788;2022-09-29T13:33:24;1.20;;;1.10;;
50815;SDS011;39717;47.324;8.788;2022-09-29T13:35:51;1.63;;;1.13;;
50815;SDS011;39717;47.324;8.788;2022-09-29T13:43:42;1.17;;;1.10;;
50815;SDS011;39717;47.324;8.788;2022-09-29T13:51:46;1.33;;;1.23;;
50815;SDS011;39717;47.324;8.788;2022-09-29T13:54:20;1.13;;;1.10;;
50815;SDS011;39717;47.324;8.788;2022-09-29T13:59:17;1.30;;;1.20;;
50815;SDS011;39717;47.324;8.788;2022-09-29T14:01:46;1.17;;;1.17;;
50815;SDS011;39717;47.324;8.788;2022-09-29T14:06:57;1.23;;;1.13;;
50815;SDS011;39717;47.324;8.788;2022-09-29T14:09:24;2.63;;;1.23;;
50815;SDS011;39717;47.324;8.788;2022-09-29T14:11:58;1.00;;;1.00;;
50815;SDS011;39717;47.324;8.788;2022-09-29T14:14:32;1.77;;;1.37;;
50815;SDS011;39717;47.324;8.788;2022-09-29T14:22:07;1.13;;;1.03;;
50815;SDS011;39717;47.324;8.788;2022-09-29T14:24:51;1.00;;;1.00;;
50815;SDS011;39717;47.324;8.788;2022-09-29T14:27:27;0.97;;;0.97;;
50815;SDS011;39717;47.324;8.788;2022-09-29T14:30:00;1.23;;;0.80;;
50815;SDS011;39717;47.324;8.788;2022-09-29T14:32:36;0.80;;;0.80;;
50815;SDS011;39717;47.324;8.788;2022-09-29T14:35:14;1.53;;;0.80;;
50815;SDS011;39717;47.324;8.788;2022-09-29T14:37:41;1.00;;;0.90;;
50815;SDS011;39717;47.324;8.788;2022-09-29T14:40:07;9.20;;;4.83;;
50815;SDS011;39717;47.324;8.788;2022-09-29T14:43:12;9.37;;;4.23;;
50815;SDS011;39717;47.324;8.788;2022-09-29T14:48:32;5.77;;;3.33;;
50815;SDS011;39717;47.324;8.788;2022-09-29T14:51:43;1.70;;;1.50;;
50815;SDS011;39717;47.324;8.788;2022-09-29T14:57:17;2.30;;;2.10;;
50815;SDS011;39717;47.324;8.788;2022-09-29T14:59:52;3.03;;;1.57;;
50815;SDS011;39717;47.324;8.788;2022-09-29T15:02:23;1.40;;;1.30;;
50815;SDS011;39717;47.324;8.788;2022-09-29T15:04:51;1.10;;;1.10;;
50815;SDS011;39717;47.324;8.788;2022-09-29T15:07:18;1.40;;;1.30;;
50815;SDS011;39717;47.324;8.788;2022-09-29T15:09:46;1.77;;;1.40;;
50815;SDS011;39717;47.324;8.788;2022-09-29T15:12:14;1.10;;;1.10;;
50815;SDS011;39717;47.324;8.788;2022-09-29T15:14:40;2.00;;;1.50;;
50815;SDS011;39717;47.324;8.788;2022-09-29T15:27:35;4.03;;;2.80;;
50815;SDS011;39717;47.324;8.788;2022-09-29T15:30:03;1.90;;;1.60;;
50815;SDS011;39717;47.324;8.788;2022-09-29T15:32:30;2.70;;;2.20;;
50815;SDS011;39717;47.324;8.788;2022-09-29T15:35:06;5.40;;;3.53;;
50815;SDS011;39717;47.324;8.788;2022-09-29T15:37:55;2.17;;;1.60;;
50815;SDS011;39717;47.324;8.788;2022-09-29T15:40:21;1.53;;;1.30;;
50815;SDS011;39717;47.324;8.788;2022-09-29T15:42:48;1.60;;;1.50;;
50815;SDS011;39717;47.324;8.788;2022-09-29T15:45:24;1.50;;;1.40;;
50815;SDS011;39717;47.324;8.788;2022-09-29T15:48:04;4.20;;;2.07;;
50815;SDS011;39717;47.324;8.788;2022-09-29T15:50:32;2.27;;;2.07;;
50815;SDS011;39717;47.324;8.788;2022-09-29T15:52:59;2.20;;;2.00;;
50815;SDS011;39717;47.324;8.788;2022-09-29T15:55:28;2.43;;;2.13;;
50815;SDS011;39717;47.324;8.788;2022-09-29T15:57:55;3.00;;;2.13;;
50815;SDS011;39717;47.324;8.788;2022-09-29T16:03:08;3.00;;;2.47;;
50815;SDS011;39717;47.324;8.788;2022-09-29T16:05:36;3.63;;;2.60;;
50815;SDS011;39717;47.324;8.788;2022-09-29T16:10:53;3.13;;;2.50;;
50815;SDS011;39717;47.324;8.788;2022-09-29T16:13:21;2.43;;;2.23;;
50815;SDS011;39717;47.324;8.788;2022-09-29T16:15:50;3.03;;;2.40;;
50815;SDS011;39717;47.324;8.788;2022-09-29T16:18:21;2.90;;;2.60;;
50815;SDS011;39717;47.324;8.788;2022-09-29T16:20:48;4.27;;;3.30;;
50815;SDS011;39717;47.324;8.788;2022-09-29T16:23:25;4.40;;;3.13;;
50815;SDS011;39717;47.324;8.788;2022-09-29T16:26:08;4.23;;;2.97;;
50815;SDS011;39717;47.324;8.788;2022-09-29T16:28:37;3.47;;;2.50;;
50815;SDS011;39717;47.324;8.788;2022-09-29T16:31:05;3.20;;;2.73;;
50815;SDS011;39717;47.324;8.788;2022-09-29T16:33:33;4.03;;;2.97;;
50815;SDS011;39717;47.324;8.788;2022-09-29T16:36:04;3.40;;;2.73;;
50815;SDS011;39717;47.324;8.788;2022-09-29T16:41:07;3.03;;;2.67;;
50815;SDS011;39717;47.324;8.788;2022-09-29T16:43:35;3.23;;;2.93;;
50815;SDS011;39717;47.324;8.788;2022-09-29T16:46:04;4.07;;;3.10;;
50815;SDS011;39717;47.324;8.788;2022-09-29T16:48:35;4.10;;;3.40;;
50815;SDS011;39717;47.324;8.788;2022-09-29T16:51:07;3.80;;;3.40;;
50815;SDS011;39717;47.324;8.788;2022-09-29T16:53:34;6.23;;;3.33;;
50815;SDS011;39717;47.324;8.788;2022-09-29T16:56:07;5.60;;;3.70;;
50815;SDS011;39717;47.324;8.788;2022-09-29T16:58:34;4.53;;;3.43;;
50815;SDS011;39717;47.324;8.788;2022-09-29T17:01:00;4.63;;;4.20;;
50815;SDS011;39717;47.324;8.788;2022-09-29T17:03:27;5.97;;;5.20;;
50815;SDS011;39717;47.324;8.788;2022-09-29T17:05:55;6.57;;;5.17;;
50815;SDS011;39717;47.324;8.788;2022-09-29T17:08:24;7.57;;;6.27;;
50815;SDS011;39717;47.324;8.788;2022-09-29T17:10:51;7.40;;;6.27;;
50815;SDS011;39717;47.324;8.788;2022-09-29T17:13:18;6.90;;;6.10;;
50815;SDS011;39717;47.324;8.788;2022-09-29T17:15:45;7.37;;;6.00;;
50815;SDS011;39717;47.324;8.788;2022-09-29T17:18:16;6.20;;;4.70;;
50815;SDS011;39717;47.324;8.788;2022-09-29T17:20:46;4.83;;;4.10;;
50815;SDS011;39717;47.324;8.788;2022-09-29T17:23:12;6.20;;;4.93;;
50815;SDS011;39717;47.324;8.788;2022-09-29T17:25:39;5.67;;;4.10;;
50815;SDS011;39717;47.324;8.788;2022-09-29T17:28:13;7.17;;;4.73;;
50815;SDS011;39717;47.324;8.788;2022-09-29T17:30:44;5.60;;;4.30;;
50815;SDS011;39717;47.324;8.788;2022-09-29T17:33:11;5.60;;;4.70;;
50815;SDS011;39717;47.324;8.788;2022-09-29T17:35:40;6.33;;;4.73;;
50815;SDS011;39717;47.324;8.788;2022-09-29T17:38:09;5.23;;;4.70;;
50815;SDS011;39717;47.324;8.788;2022-09-29T17:40:44;5.33;;;4.27;;
50815;SDS011;39717;47.324;8.788;2022-09-29T17:43:11;6.80;;;5.33;;